Portada
METAR-TAF:

METAR-TAF

Aeroports :

Litchfield Municipal Airport

Litchfield, Illinois, Estats Units d'Amèrica

latitud: 39-09-44N, longitud: 089-40-28W, altitud: 210 m

Observació

L'informe es va fer fa 38 minuts, a les 18:35 UTC
Vent 6 kt del Est
Temperatura 30°C
Humitat 25%
Pressió 1018 hPa
Visibilitat: 16.1 km
Cel clar

METAR: K3LF 151835Z AUTO 08006KT 10SM CLR 30/08 A3007 RMK AO2 T03000084

Hora: 14:13 (19:13 UTC)


TAF: manca

Observacions i pronòstics meteorològics de més de 4000 aeroports (METAR i TAF).

Les estacions disponibles són els punts grocs i vermells al mapa.

Posi el ratolí al punt desitjat per veure el nom de l'estació.

Feu clic per veure les observacions i els pronòstics meteorològics.

Per canviar el mapa: feu clic els botons verds amb una creu de color negre per apropar; al botó verd amb un guió per allunyar la imatge; o en les fletxes verdes per a mapes adjacents.


METAR-TAF: